createdAt,value
2017-10-11T00:01:28.256Z,9.83
2017-10-11T00:03:55.922Z,9.89
2017-10-11T00:06:23.645Z,9.90
2017-10-11T00:08:51.353Z,9.87
2017-10-11T00:11:19.159Z,9.84
2017-10-11T00:13:46.884Z,9.78
2017-10-11T00:16:14.599Z,9.67
2017-10-11T00:18:42.324Z,9.65
2017-10-11T00:21:10.044Z,9.77
2017-10-11T00:23:37.781Z,9.77
2017-10-11T00:26:05.505Z,9.82
2017-10-11T00:28:33.324Z,9.85
2017-10-11T00:31:01.264Z,9.90
2017-10-11T00:33:29.019Z,9.91
2017-10-11T00:35:56.762Z,9.92
2017-10-11T00:38:24.500Z,9.95
2017-10-11T00:40:52.204Z,9.97
2017-10-11T00:43:19.901Z,9.98
2017-10-11T00:45:47.659Z,10.01
2017-10-11T00:48:15.374Z,9.94
2017-10-11T00:50:43.174Z,9.85
2017-10-11T00:53:10.929Z,9.80
2017-10-11T00:55:38.768Z,9.79
2017-10-11T00:58:06.554Z,9.77
2017-10-11T01:00:34.305Z,9.73
2017-10-11T01:03:02.083Z,9.66
2017-10-11T01:05:29.823Z,9.66
2017-10-11T01:07:57.587Z,9.61
2017-10-11T01:10:25.321Z,9.56
2017-10-11T01:12:53.086Z,9.62
2017-10-11T01:15:20.949Z,9.64
2017-10-11T01:17:48.649Z,9.64
2017-10-11T01:20:16.380Z,9.63
2017-10-11T01:22:44.134Z,9.60
2017-10-11T01:25:11.911Z,9.50
2017-10-11T01:27:39.787Z,9.44
2017-10-11T01:30:07.553Z,9.53
2017-10-11T01:32:35.371Z,9.48
2017-10-11T01:35:03.149Z,9.45
2017-10-11T01:37:30.899Z,9.46
2017-10-11T01:39:58.938Z,9.48
2017-10-11T01:42:26.747Z,9.46
2017-10-11T01:44:54.574Z,9.43
2017-10-11T01:47:22.404Z,9.37
2017-10-11T01:49:50.431Z,9.35
2017-10-11T01:52:18.277Z,9.24
2017-10-11T01:54:46.040Z,9.24
2017-10-11T01:57:13.833Z,9.18
2017-10-11T01:59:41.554Z,9.12
2017-10-11T02:02:09.282Z,9.15
2017-10-11T02:04:37.028Z,9.10
2017-10-11T02:07:04.779Z,9.10
2017-10-11T02:09:32.630Z,9.19
2017-10-11T02:12:00.383Z,9.15
2017-10-11T02:14:28.207Z,9.21
2017-10-11T02:16:55.977Z,9.24
2017-10-11T02:19:23.690Z,9.22
2017-10-11T02:21:51.437Z,9.31
2017-10-11T02:24:19.117Z,9.35
2017-10-11T02:26:46.809Z,9.30
2017-10-11T02:29:14.573Z,9.23
2017-10-11T02:31:42.245Z,9.14
2017-10-11T02:34:09.956Z,9.23
2017-10-11T02:36:37.720Z,9.19
2017-10-11T02:39:05.444Z,9.21
2017-10-11T02:41:33.236Z,9.26
2017-10-11T02:44:00.967Z,9.31
2017-10-11T02:46:28.667Z,9.32
2017-10-11T02:48:56.406Z,9.38
2017-10-11T02:51:24.177Z,9.38
2017-10-11T02:53:51.994Z,9.36
2017-10-11T02:56:19.692Z,9.30
2017-10-11T02:58:47.438Z,9.32
2017-10-11T03:01:15.224Z,9.33
2017-10-11T03:03:42.955Z,8.94
2017-10-11T03:06:10.631Z,8.75
2017-10-11T03:08:38.363Z,8.80
2017-10-11T03:11:06.089Z,8.86
2017-10-11T03:13:33.841Z,8.74
2017-10-11T03:16:01.521Z,8.77
2017-10-11T03:18:29.196Z,8.64
2017-10-11T03:20:56.917Z,8.60
2017-10-11T03:23:24.667Z,8.50
2017-10-11T03:25:52.354Z,8.50
2017-10-11T03:28:20.065Z,8.47
2017-10-11T03:30:47.733Z,8.53
2017-10-11T03:33:15.458Z,8.44
2017-10-11T03:35:43.197Z,8.35
2017-10-11T03:38:10.908Z,8.34
2017-10-11T03:40:38.693Z,8.07
2017-10-11T03:43:06.390Z,8.05
2017-10-11T03:45:34.896Z,7.91
2017-10-11T03:48:02.668Z,8.06
2017-10-11T03:50:30.405Z,7.88
2017-10-11T03:52:58.087Z,7.87
2017-10-11T03:55:25.803Z,7.95
2017-10-11T03:57:53.586Z,7.97
2017-10-11T04:00:21.314Z,8.04
2017-10-11T04:02:49.063Z,8.05
2017-10-11T04:05:16.777Z,8.09
2017-10-11T04:07:44.622Z,8.07
2017-10-11T04:10:12.312Z,8.05
2017-10-11T04:12:40.090Z,7.93
2017-10-11T04:15:07.827Z,7.91
2017-10-11T04:17:35.652Z,7.91
2017-10-11T04:20:03.358Z,7.88
2017-10-11T04:22:31.059Z,7.93
2017-10-11T04:24:58.976Z,7.85
2017-10-11T04:27:26.775Z,8.00
2017-10-11T04:29:54.610Z,7.94
2017-10-11T04:32:22.350Z,7.91
2017-10-11T04:34:50.200Z,7.94
2017-10-11T04:37:18.148Z,7.91
2017-10-11T04:39:45.930Z,7.86
2017-10-11T04:42:13.721Z,7.77
2017-10-11T04:44:41.539Z,7.66
2017-10-11T04:47:10.039Z,7.67
2017-10-11T04:49:38.014Z,8.01
2017-10-11T04:52:06.226Z,7.89
2017-10-11T04:54:34.032Z,7.90
2017-10-11T04:57:01.781Z,7.84
2017-10-11T04:59:29.557Z,7.82
2017-10-11T05:01:57.316Z,7.67
2017-10-11T05:04:25.070Z,7.64
2017-10-11T05:06:52.793Z,7.63
2017-10-11T05:09:20.512Z,7.50
2017-10-11T05:11:48.199Z,7.70
2017-10-11T05:14:17.231Z,7.70
2017-10-11T05:16:44.922Z,7.65
2017-10-11T05:19:12.671Z,7.67
2017-10-11T05:21:40.431Z,7.77
2017-10-11T05:24:08.169Z,7.87
2017-10-11T05:26:36.010Z,7.87
2017-10-11T05:29:04.944Z,7.90
2017-10-11T05:31:32.685Z,7.85
2017-10-11T05:34:00.374Z,7.90
2017-10-11T05:36:28.148Z,7.95
2017-10-11T05:38:55.812Z,7.99
2017-10-11T05:41:23.480Z,8.09
2017-10-11T05:43:51.277Z,8.12
2017-10-11T05:46:18.954Z,8.14
2017-10-11T05:48:46.687Z,8.15
2017-10-11T05:51:14.423Z,8.18
2017-10-11T05:53:42.201Z,8.19
2017-10-11T05:56:09.890Z,8.28
2017-10-11T05:58:37.784Z,8.39
2017-10-11T06:01:05.521Z,8.43
2017-10-11T06:03:33.188Z,8.45
2017-10-11T06:06:00.952Z,8.35
2017-10-11T06:08:28.781Z,8.49
2017-10-11T06:10:56.510Z,8.63
2017-10-11T06:13:24.201Z,8.73
2017-10-11T06:15:51.944Z,8.86
2017-10-11T06:18:19.690Z,9.01
2017-10-11T06:20:47.585Z,8.97
2017-10-11T06:23:15.282Z,9.18
2017-10-11T06:25:42.983Z,9.24
2017-10-11T06:28:10.787Z,9.35
2017-10-11T06:30:38.621Z,9.55
2017-10-11T06:33:06.524Z,9.73
2017-10-11T06:35:34.199Z,9.92
2017-10-11T06:38:01.915Z,9.79
2017-10-11T06:40:29.742Z,10.04
2017-10-11T06:42:57.414Z,10.39
2017-10-11T06:45:25.154Z,10.47
2017-10-11T06:47:52.919Z,10.36
2017-10-11T06:50:20.623Z,10.62
2017-10-11T06:52:48.487Z,10.73
2017-10-11T06:55:16.170Z,10.93
2017-10-11T06:57:43.842Z,11.07
2017-10-11T07:00:11.597Z,11.38
2017-10-11T07:02:39.286Z,11.25
2017-10-11T07:05:07.181Z,11.04
2017-10-11T07:07:35.556Z,10.85
2017-10-11T07:10:03.294Z,11.14
2017-10-11T07:12:31.093Z,11.12
2017-10-11T07:14:58.872Z,10.59
2017-10-11T07:17:26.564Z,10.46
2017-10-11T07:19:54.283Z,10.17
2017-10-11T07:22:21.973Z,10.11
2017-10-11T07:24:49.784Z,10.17
2017-10-11T07:27:17.489Z,10.24
2017-10-11T07:29:45.236Z,10.55
2017-10-11T07:32:13.064Z,10.99
2017-10-11T07:34:40.782Z,11.55
2017-10-11T07:37:08.515Z,11.89
2017-10-11T07:39:36.328Z,12.18
2017-10-11T07:42:04.130Z,12.47
2017-10-11T07:44:31.905Z,12.72
2017-10-11T07:46:59.701Z,13.08
2017-10-11T07:49:27.470Z,13.67
2017-10-11T07:51:55.213Z,14.24
2017-10-11T07:54:22.950Z,12.98
2017-10-11T07:56:50.709Z,13.12
2017-10-11T07:59:18.598Z,12.80
2017-10-11T08:01:46.309Z,13.03
2017-10-11T08:04:14.012Z,12.57
2017-10-11T08:06:41.896Z,11.91
2017-10-11T08:09:09.635Z,12.27
2017-10-11T08:11:37.421Z,12.55
2017-10-11T08:14:05.188Z,12.91
2017-10-11T08:16:32.908Z,13.09
2017-10-11T08:19:00.669Z,13.25
2017-10-11T08:21:28.386Z,13.51
2017-10-11T08:23:56.097Z,13.55
2017-10-11T08:26:23.868Z,13.03
2017-10-11T08:28:51.624Z,13.59
2017-10-11T08:31:19.385Z,13.65
2017-10-11T08:33:47.067Z,14.44
2017-10-11T08:36:15.197Z,14.13
2017-10-11T08:38:42.895Z,13.90
2017-10-11T08:41:10.603Z,14.25
2017-10-11T08:43:38.413Z,14.63
2017-10-11T08:46:06.154Z,14.87
2017-10-11T08:48:34.687Z,14.51
2017-10-11T08:51:02.465Z,14.45
2017-10-11T08:53:30.195Z,14.61
2017-10-11T08:55:57.884Z,14.58
2017-10-11T08:58:25.671Z,14.59
2017-10-11T09:00:53.369Z,15.43
2017-10-11T09:03:21.090Z,15.02
2017-10-11T09:05:48.853Z,14.11
2017-10-11T09:08:16.638Z,15.45
2017-10-11T09:10:44.381Z,16.66
2017-10-11T09:13:12.129Z,17.05
2017-10-11T09:15:39.830Z,16.84
2017-10-11T09:18:07.608Z,17.21
2017-10-11T09:20:35.301Z,16.14
2017-10-11T09:23:02.979Z,16.12
2017-10-11T09:25:30.824Z,16.40
2017-10-11T09:27:58.515Z,16.41
2017-10-11T09:30:26.205Z,16.00
2017-10-11T09:32:54.007Z,16.49
2017-10-11T09:35:21.771Z,16.00
2017-10-11T09:37:49.523Z,16.83
2017-10-11T09:40:17.334Z,16.58
2017-10-11T09:42:45.334Z,16.72
2017-10-11T09:45:13.100Z,17.02
2017-10-11T09:47:40.810Z,17.03
2017-10-11T09:50:08.923Z,17.31
2017-10-11T09:52:36.829Z,17.64
2017-10-11T09:55:04.576Z,17.58
2017-10-11T09:57:32.265Z,17.49
2017-10-11T10:00:00.060Z,17.09
2017-10-11T10:02:27.833Z,17.07
2017-10-11T10:04:55.605Z,16.78
2017-10-11T10:07:23.325Z,17.00
2017-10-11T10:09:51.085Z,17.82
2017-10-11T10:12:18.828Z,17.03
2017-10-11T10:14:46.537Z,17.56
2017-10-11T10:17:15.388Z,17.78
2017-10-11T10:19:43.065Z,17.61
2017-10-11T10:22:10.813Z,17.58
2017-10-11T10:24:38.619Z,17.53
2017-10-11T10:27:06.340Z,18.46
2017-10-11T10:29:34.066Z,18.14
2017-10-11T10:32:01.762Z,18.02
2017-10-11T10:34:29.520Z,18.44
2017-10-11T10:36:57.195Z,17.98
2017-10-11T10:39:25.257Z,17.92
2017-10-11T10:41:52.937Z,18.61
2017-10-11T10:44:20.636Z,18.51
2017-10-11T10:46:48.372Z,18.93
2017-10-11T10:49:16.136Z,18.18
2017-10-11T10:51:43.877Z,18.23
2017-10-11T10:54:11.594Z,19.13
2017-10-11T10:56:39.404Z,19.07
2017-10-11T10:59:07.173Z,19.03
2017-10-11T11:01:34.965Z,18.07
2017-10-11T11:04:02.656Z,18.20
2017-10-11T11:06:30.325Z,18.84
2017-10-11T11:08:58.075Z,18.00
2017-10-11T11:11:25.796Z,18.66
2017-10-11T11:13:53.543Z,18.57
2017-10-11T11:16:21.256Z,19.04
2017-10-11T11:18:49.155Z,19.34
2017-10-11T11:21:16.947Z,18.93
2017-10-11T11:23:44.736Z,18.88
2017-10-11T11:26:13.173Z,19.37
2017-10-11T11:28:40.855Z,19.57
2017-10-11T11:31:08.592Z,19.37
2017-10-11T11:33:36.477Z,19.52
2017-10-11T11:36:04.232Z,19.66
2017-10-11T11:38:32.019Z,20.00
2017-10-11T11:40:59.752Z,19.99
2017-10-11T11:43:27.498Z,19.78
2017-10-11T11:45:55.755Z,19.64
2017-10-11T11:48:24.344Z,19.60
2017-10-11T11:50:54.068Z,19.78
2017-10-11T11:53:22.042Z,19.60
2017-10-11T11:55:49.774Z,19.92
2017-10-11T11:58:17.582Z,19.98
2017-10-11T12:00:45.610Z,19.95
2017-10-11T12:03:14.159Z,19.63
2017-10-11T12:05:41.929Z,19.68
2017-10-11T12:08:10.251Z,20.03
2017-10-11T12:10:39.212Z,20.23
2017-10-11T12:13:07.013Z,20.01
2017-10-11T12:15:34.962Z,19.93
2017-10-11T12:18:02.842Z,19.80
2017-10-11T12:20:32.746Z,19.48
2017-10-11T12:23:01.655Z,19.95
2017-10-11T12:25:29.744Z,20.16
2017-10-11T12:27:57.642Z,20.26
2017-10-11T12:30:25.537Z,20.65
2017-10-11T12:32:54.290Z,20.30
2017-10-11T12:35:22.233Z,20.58
2017-10-11T12:37:50.457Z,19.94
2017-10-11T12:40:18.290Z,20.48
2017-10-11T12:42:46.914Z,20.36
2017-10-11T12:45:14.822Z,20.53
2017-10-11T12:47:43.137Z,20.41
2017-10-11T12:50:10.958Z,20.51
2017-10-11T12:52:39.704Z,20.01
2017-10-11T12:55:07.492Z,20.07
2017-10-11T12:57:35.554Z,19.92
2017-10-11T13:00:03.330Z,19.62
2017-10-11T13:02:31.113Z,19.76
2017-10-11T13:04:58.941Z,20.40
2017-10-11T13:07:26.795Z,20.18
2017-10-11T13:09:54.569Z,20.24
2017-10-11T13:12:22.489Z,20.42
2017-10-11T13:14:51.605Z,20.09
2017-10-11T13:17:19.505Z,20.14
2017-10-11T13:19:47.232Z,20.45
2017-10-11T13:22:15.076Z,20.35
2017-10-11T13:24:43.603Z,19.83
2017-10-11T13:27:11.399Z,19.89
2017-10-11T13:29:39.169Z,20.27
2017-10-11T13:32:06.871Z,20.11
2017-10-11T13:34:35.734Z,20.33
2017-10-11T13:37:03.530Z,20.61
2017-10-11T13:39:31.315Z,19.68
2017-10-11T13:41:59.016Z,19.86
2017-10-11T13:44:26.870Z,20.18
2017-10-11T13:46:54.596Z,20.07
2017-10-11T13:49:22.364Z,20.12
2017-10-11T13:51:50.737Z,20.16
2017-10-11T13:54:18.532Z,20.30
2017-10-11T13:56:46.327Z,20.31
2017-10-11T13:59:14.277Z,20.52
2017-10-11T14:01:42.131Z,20.51
2017-10-11T14:04:09.928Z,20.61
2017-10-11T14:06:37.668Z,20.67
2017-10-11T14:09:05.555Z,20.70
2017-10-11T14:11:33.384Z,20.64
2017-10-11T14:14:01.101Z,20.47
2017-10-11T14:16:28.816Z,20.35
2017-10-11T14:18:56.726Z,20.04
2017-10-11T14:21:25.024Z,20.09
2017-10-11T14:23:52.880Z,20.21
2017-10-11T14:26:20.747Z,20.18
2017-10-11T14:31:22.614Z,19.84
2017-10-11T14:33:50.423Z,19.92
2017-10-11T14:36:18.454Z,19.91
2017-10-11T14:38:47.221Z,19.46
2017-10-11T14:41:14.931Z,19.41
2017-10-11T14:43:42.776Z,19.31
2017-10-11T14:46:10.510Z,19.30
2017-10-11T14:48:38.368Z,19.25
2017-10-11T14:51:06.877Z,18.83
2017-10-11T14:53:34.657Z,18.92
2017-10-11T14:56:02.405Z,18.63
2017-10-11T14:58:30.187Z,18.49
2017-10-11T15:00:57.967Z,18.45
2017-10-11T15:03:25.783Z,18.12
2017-10-11T15:05:53.556Z,18.05
2017-10-11T15:08:21.282Z,17.72
2017-10-11T15:10:49.021Z,17.73
2017-10-11T15:13:17.876Z,17.49
2017-10-11T15:15:45.708Z,17.42
2017-10-11T15:18:13.429Z,17.45
2017-10-11T15:20:41.218Z,17.15
2017-10-11T15:23:08.937Z,17.00
2017-10-11T15:25:36.928Z,16.99
2017-10-11T15:28:04.739Z,16.96
2017-10-11T15:30:32.449Z,16.71
2017-10-11T15:33:00.188Z,16.66
2017-10-11T15:35:28.015Z,16.85
2017-10-11T15:37:55.735Z,16.68
2017-10-11T15:40:23.564Z,16.50
2017-10-11T15:42:51.505Z,16.37
2017-10-11T15:45:19.239Z,16.36
2017-10-11T15:47:47.061Z,16.20
2017-10-11T15:50:14.822Z,16.08
2017-10-11T15:52:42.561Z,16.02
2017-10-11T15:55:10.352Z,16.03
2017-10-11T15:57:38.071Z,15.88
2017-10-11T16:00:05.982Z,15.79
2017-10-11T16:02:33.824Z,15.69
2017-10-11T16:05:02.427Z,15.86
2017-10-11T16:07:30.362Z,15.66
2017-10-11T16:09:58.158Z,15.43
2017-10-11T16:12:26.363Z,15.42
2017-10-11T16:14:54.131Z,15.41
2017-10-11T16:17:21.983Z,15.15
2017-10-11T16:19:49.734Z,15.06
2017-10-11T16:22:17.547Z,15.01
2017-10-11T16:24:45.428Z,14.90
2017-10-11T16:27:13.192Z,14.85
2017-10-11T16:29:41.073Z,14.79
2017-10-11T16:32:09.236Z,14.70
2017-10-11T16:34:37.079Z,14.63
2017-10-11T16:37:05.834Z,14.43
2017-10-11T16:39:33.715Z,14.40
2017-10-11T16:42:01.484Z,14.25
2017-10-11T16:44:29.250Z,14.29
2017-10-11T16:46:57.115Z,14.36
2017-10-11T16:49:25.027Z,14.23
2017-10-11T16:51:54.029Z,13.95
2017-10-11T16:54:21.801Z,14.08
2017-10-11T16:56:50.372Z,13.98
2017-10-11T16:59:18.229Z,13.94
2017-10-11T17:01:46.237Z,14.01
2017-10-11T17:04:13.983Z,13.96
2017-10-11T17:06:41.834Z,13.99
2017-10-11T17:09:09.659Z,13.69
2017-10-11T17:11:37.558Z,13.65
2017-10-11T17:14:05.364Z,13.52
2017-10-11T17:16:33.128Z,13.51
2017-10-11T17:19:01.589Z,13.32
2017-10-11T17:21:30.645Z,13.27
2017-10-11T17:23:58.586Z,13.31
2017-10-11T17:26:27.240Z,13.32
2017-10-11T17:28:55.031Z,13.16
2017-10-11T17:31:23.132Z,13.22
2017-10-11T17:33:50.942Z,13.04
2017-10-11T17:36:19.344Z,12.84
2017-10-11T17:38:47.285Z,12.76
2017-10-11T17:41:15.087Z,12.68
2017-10-11T17:43:42.936Z,12.80
2017-10-11T17:46:10.687Z,12.52
2017-10-11T17:48:40.130Z,12.47
2017-10-11T17:51:08.022Z,12.57
2017-10-11T17:53:36.647Z,12.40
2017-10-11T17:56:05.543Z,12.32
2017-10-11T17:58:33.591Z,12.31
2017-10-11T18:01:02.186Z,12.32
2017-10-11T18:03:30.149Z,12.33
2017-10-11T18:05:57.948Z,12.14
2017-10-11T18:08:25.736Z,12.07
2017-10-11T18:10:54.661Z,11.98
2017-10-11T18:13:22.516Z,11.99
2017-10-11T18:15:50.362Z,11.90
2017-10-11T18:18:18.234Z,11.73
2017-10-11T18:20:46.104Z,11.66
2017-10-11T18:23:13.891Z,11.78
2017-10-11T18:25:41.699Z,11.70
2017-10-11T18:28:09.714Z,11.90
2017-10-11T18:30:37.541Z,11.67
2017-10-11T18:33:05.486Z,11.49
2017-10-11T18:35:33.472Z,11.41
2017-10-11T18:38:02.669Z,11.48
2017-10-11T18:40:30.517Z,11.51
2017-10-11T18:42:59.301Z,11.57
2017-10-11T18:45:27.036Z,11.32
2017-10-11T18:47:54.875Z,11.18
2017-10-11T18:50:22.789Z,11.17
2017-10-11T18:52:52.683Z,11.21
2017-10-11T18:55:20.727Z,11.23
2017-10-11T18:57:49.659Z,11.18
2017-10-11T19:00:19.295Z,11.16
2017-10-11T19:02:49.022Z,10.99
2017-10-11T19:05:16.822Z,11.05
2017-10-11T19:07:45.522Z,10.76
2017-10-11T19:10:13.412Z,10.83
2017-10-11T19:12:41.265Z,10.68
2017-10-11T19:15:09.165Z,10.67
2017-10-11T19:17:36.922Z,10.62
2017-10-11T19:20:04.758Z,10.56
2017-10-11T19:22:32.484Z,10.64
2017-10-11T19:25:00.341Z,10.64
2017-10-11T19:27:28.166Z,10.60
2017-10-11T19:29:56.401Z,10.72
2017-10-11T19:32:24.134Z,10.77
2017-10-11T19:34:52.056Z,10.70
2017-10-11T19:37:19.903Z,10.58
2017-10-11T19:39:48.670Z,10.31
2017-10-11T19:42:18.278Z,10.28
2017-10-11T19:44:47.889Z,10.26
2017-10-11T19:47:15.652Z,10.20
2017-10-11T19:49:43.485Z,10.29
2017-10-11T19:52:11.392Z,10.30
2017-10-11T19:54:39.392Z,10.26
2017-10-11T19:57:07.209Z,10.17
2017-10-11T19:59:36.108Z,10.08
2017-10-11T20:02:03.981Z,10.00
2017-10-11T20:04:31.868Z,10.09
2017-10-11T20:06:59.818Z,10.16
2017-10-11T20:09:27.642Z,10.02
2017-10-11T20:11:55.378Z,10.00
2017-10-11T20:14:23.179Z,9.91
2017-10-11T20:16:51.021Z,10.02
2017-10-11T20:19:18.828Z,9.96
2017-10-11T20:21:46.861Z,9.88
2017-10-11T20:24:14.664Z,9.91
2017-10-11T20:26:42.516Z,9.79
2017-10-11T20:29:10.441Z,9.89
2017-10-11T20:31:39.344Z,9.84
2017-10-11T20:34:07.163Z,9.82
2017-10-11T20:36:35.065Z,9.73
2017-10-11T20:39:02.807Z,9.73
2017-10-11T20:41:30.506Z,9.60
2017-10-11T20:43:58.360Z,9.65
2017-10-11T20:46:26.140Z,9.54
2017-10-11T20:48:53.912Z,9.53
2017-10-11T20:51:21.737Z,9.64
2017-10-11T20:53:49.546Z,9.54
2017-10-11T20:56:17.315Z,9.50
2017-10-11T20:58:45.226Z,9.60
2017-10-11T21:01:13.472Z,9.74
2017-10-11T21:03:41.234Z,9.81
2017-10-11T21:06:09.071Z,9.71
2017-10-11T21:08:36.812Z,9.69
2017-10-11T21:11:04.635Z,9.39
2017-10-11T21:13:32.442Z,9.44
2017-10-11T21:16:00.904Z,9.62
2017-10-11T21:18:28.766Z,9.44
2017-10-11T21:20:56.581Z,9.44
2017-10-11T21:23:24.406Z,9.34
2017-10-11T21:25:52.124Z,9.15
2017-10-11T21:28:19.947Z,9.05
2017-10-11T21:30:48.738Z,9.04
2017-10-11T21:33:16.564Z,9.10
2017-10-11T21:35:44.351Z,9.10
2017-10-11T21:38:12.194Z,9.13
2017-10-11T21:40:40.004Z,9.08
2017-10-11T21:43:07.824Z,8.89
2017-10-11T21:45:35.650Z,8.90
2017-10-11T21:48:03.440Z,8.96
2017-10-11T21:50:31.227Z,8.95
2017-10-11T21:52:59.044Z,8.86
2017-10-11T21:55:26.726Z,8.75
2017-10-11T21:57:54.513Z,8.79
2017-10-11T22:00:22.337Z,8.81
2017-10-11T22:02:50.086Z,8.80
2017-10-11T22:05:17.908Z,8.75
2017-10-11T22:07:45.668Z,8.82
2017-10-11T22:10:13.443Z,8.96
2017-10-11T22:12:41.395Z,8.68
2017-10-11T22:15:09.092Z,8.67
2017-10-11T22:17:36.825Z,8.66
2017-10-11T22:20:04.632Z,8.59
2017-10-11T22:22:33.617Z,8.73
2017-10-11T22:25:01.314Z,8.69
2017-10-11T22:27:29.072Z,8.58
2017-10-11T22:29:56.850Z,8.61
2017-10-11T22:32:25.368Z,8.57
2017-10-11T22:34:53.225Z,8.47
2017-10-11T22:37:21.112Z,8.19
2017-10-11T22:39:48.852Z,8.34
2017-10-11T22:42:16.571Z,8.44
2017-10-11T22:44:44.357Z,8.43
2017-10-11T22:47:12.158Z,8.49
2017-10-11T22:49:39.950Z,8.49
2017-10-11T22:52:07.734Z,8.27
2017-10-11T22:54:36.465Z,8.32
2017-10-11T22:57:04.200Z,8.38
2017-10-11T22:59:31.969Z,8.37
2017-10-11T23:01:59.738Z,8.18
2017-10-11T23:04:27.481Z,8.30
2017-10-11T23:06:55.229Z,8.21
2017-10-11T23:09:23.016Z,8.12
2017-10-11T23:11:50.722Z,8.00
2017-10-11T23:14:18.482Z,7.69
2017-10-11T23:16:46.428Z,7.79
2017-10-11T23:19:14.147Z,7.85
2017-10-11T23:21:41.873Z,7.77
2017-10-11T23:24:09.599Z,7.83
2017-10-11T23:26:37.336Z,7.74
2017-10-11T23:29:05.087Z,7.70
2017-10-11T23:31:32.854Z,7.62
2017-10-11T23:34:00.651Z,7.70
2017-10-11T23:36:28.324Z,7.62
2017-10-11T23:38:56.075Z,7.64
2017-10-11T23:41:23.742Z,7.50
2017-10-11T23:43:51.470Z,7.60
2017-10-11T23:46:19.369Z,7.60
2017-10-11T23:48:47.068Z,7.67
2017-10-11T23:51:14.796Z,7.52
2017-10-11T23:53:42.535Z,7.41
2017-10-11T23:56:10.223Z,7.60
2017-10-11T23:58:37.952Z,7.52
